sensor_id;sensor_type;location;lat;lon;timestamp;temperature;humidity
9175;DHT22;54374;50.196;8.050;2022-09-21T00:01:57;4.80;99.90
9175;DHT22;54374;50.196;8.050;2022-09-21T00:04:24;4.80;99.90
9175;DHT22;54374;50.196;8.050;2022-09-21T00:06:51;4.80;99.90
9175;DHT22;54374;50.196;8.050;2022-09-21T00:09:18;4.80;99.90
9175;DHT22;54374;50.196;8.050;2022-09-21T00:11:45;4.80;99.90
9175;DHT22;54374;50.196;8.050;2022-09-21T00:14:13;4.80;99.90
9175;DHT22;54374;50.196;8.050;2022-09-21T00:16:41;4.80;99.90
9175;DHT22;54374;50.196;8.050;2022-09-21T00:19:09;4.70;99.90
9175;DHT22;54374;50.196;8.050;2022-09-21T00:21:36;4.60;99.90
9175;DHT22;54374;50.196;8.050;2022-09-21T00:24:04;4.60;99.90
9175;DHT22;54374;50.196;8.050;2022-09-21T00:26:31;4.70;99.90
9175;DHT22;54374;50.196;8.050;2022-09-21T00:29:00;4.70;99.90
9175;DHT22;54374;50.196;8.050;2022-09-21T00:31:29;4.70;99.90
9175;DHT22;54374;50.196;8.050;2022-09-21T00:33:57;4.50;99.90
9175;DHT22;54374;50.196;8.050;2022-09-21T00:36:26;4.50;99.90
9175;DHT22;54374;50.196;8.050;2022-09-21T00:38:55;4.50;99.90
9175;DHT22;54374;50.196;8.050;2022-09-21T00:41:23;4.60;99.90
9175;DHT22;54374;50.196;8.050;2022-09-21T00:44:24;4.50;99.90
9175;DHT22;54374;50.196;8.050;2022-09-21T00:46:57;4.40;99.90
9175;DHT22;54374;50.196;8.050;2022-09-21T00:49:27;4.30;99.90
9175;DHT22;54374;50.196;8.050;2022-09-21T00:51:55;4.30;99.90
9175;DHT22;54374;50.196;8.050;2022-09-21T00:54:26;4.30;99.90
9175;DHT22;54374;50.196;8.050;2022-09-21T00:56:55;4.30;99.90
9175;DHT22;54374;50.196;8.050;2022-09-21T00:59:24;4.40;99.90
9175;DHT22;54374;50.196;8.050;2022-09-21T01:01:52;4.40;99.90
9175;DHT22;54374;50.196;8.050;2022-09-21T01:04:20;4.40;99.90
9175;DHT22;54374;50.196;8.050;2022-09-21T01:06:48;4.40;99.90
9175;DHT22;54374;50.196;8.050;2022-09-21T01:09:50;4.30;99.90
9175;DHT22;54374;50.196;8.050;2022-09-21T01:12:32;4.20;99.90
9175;DHT22;54374;50.196;8.050;2022-09-21T01:15:16;4.20;99.90
9175;DHT22;54374;50.196;8.050;2022-09-21T01:17:50;4.20;99.90
9175;DHT22;54374;50.196;8.050;2022-09-21T01:21:04;4.20;99.90
9175;DHT22;54374;50.196;8.050;2022-09-21T01:23:44;4.10;99.90
9175;DHT22;54374;50.196;8.050;2022-09-21T01:26:23;4.00;99.90
9175;DHT22;54374;50.196;8.050;2022-09-21T01:29:09;4.00;99.90
9175;DHT22;54374;50.196;8.050;2022-09-21T01:31:41;4.00;99.90
9175;DHT22;54374;50.196;8.050;2022-09-21T01:34:15;4.00;99.90
9175;DHT22;54374;50.196;8.050;2022-09-21T01:36:46;4.00;99.90
9175;DHT22;54374;50.196;8.050;2022-09-21T01:39:16;4.00;99.90
9175;DHT22;54374;50.196;8.050;2022-09-21T01:41:47;4.00;99.90
9175;DHT22;54374;50.196;8.050;2022-09-21T01:44:20;4.00;99.90
9175;DHT22;54374;50.196;8.050;2022-09-21T01:46:48;4.00;99.90
9175;DHT22;54374;50.196;8.050;2022-09-21T01:49:20;4.00;99.90
9175;DHT22;54374;50.196;8.050;2022-09-21T01:51:52;4.00;99.90
9175;DHT22;54374;50.196;8.050;2022-09-21T01:54:27;3.90;99.90
9175;DHT22;54374;50.196;8.050;2022-09-21T01:57:01;3.80;99.90
9175;DHT22;54374;50.196;8.050;2022-09-21T01:59:39;3.70;99.90
9175;DHT22;54374;50.196;8.050;2022-09-21T02:02:11;3.70;99.90
9175;DHT22;54374;50.196;8.050;2022-09-21T02:04:40;3.70;99.90
9175;DHT22;54374;50.196;8.050;2022-09-21T02:07:33;3.70;99.90
9175;DHT22;54374;50.196;8.050;2022-09-21T02:10:02;3.80;99.90
9175;DHT22;54374;50.196;8.050;2022-09-21T02:12:29;3.70;99.90
9175;DHT22;54374;50.196;8.050;2022-09-21T02:14:59;3.70;99.90
9175;DHT22;54374;50.196;8.050;2022-09-21T02:17:35;3.70;99.90
9175;DHT22;54374;50.196;8.050;2022-09-21T02:20:13;3.70;99.90
9175;DHT22;54374;50.196;8.050;2022-09-21T02:22:53;3.60;99.90
9175;DHT22;54374;50.196;8.050;2022-09-21T02:25:28;3.60;99.90
9175;DHT22;54374;50.196;8.050;2022-09-21T02:28:02;3.50;99.90
9175;DHT22;54374;50.196;8.050;2022-09-21T02:30:33;3.40;99.90
9175;DHT22;54374;50.196;8.050;2022-09-21T02:33:05;3.40;99.90
9175;DHT22;54374;50.196;8.050;2022-09-21T02:35:41;3.40;99.90
9175;DHT22;54374;50.196;8.050;2022-09-21T02:38:14;3.30;99.90
9175;DHT22;54374;50.196;8.050;2022-09-21T02:40:48;3.30;99.90
9175;DHT22;54374;50.196;8.050;2022-09-21T02:43:20;3.30;99.90
9175;DHT22;54374;50.196;8.050;2022-09-21T02:45:54;3.30;99.90
9175;DHT22;54374;50.196;8.050;2022-09-21T02:48:26;3.30;99.90
9175;DHT22;54374;50.196;8.050;2022-09-21T02:50:58;3.30;99.90
9175;DHT22;54374;50.196;8.050;2022-09-21T02:53:29;3.40;99.90
9175;DHT22;54374;50.196;8.050;2022-09-21T02:56:00;3.40;99.90
9175;DHT22;54374;50.196;8.050;2022-09-21T02:58:35;3.40;99.90
9175;DHT22;54374;50.196;8.050;2022-09-21T03:01:04;3.40;99.90
9175;DHT22;54374;50.196;8.050;2022-09-21T03:03:33;3.30;99.90
9175;DHT22;54374;50.196;8.050;2022-09-21T03:06:02;3.40;99.90
9175;DHT22;54374;50.196;8.050;2022-09-21T03:08:29;3.30;99.90
9175;DHT22;54374;50.196;8.050;2022-09-21T03:10:56;3.30;99.90
9175;DHT22;54374;50.196;8.050;2022-09-21T03:13:23;3.20;99.90
9175;DHT22;54374;50.196;8.050;2022-09-21T03:15:58;3.20;99.90
9175;DHT22;54374;50.196;8.050;2022-09-21T03:18:26;3.30;99.90
9175;DHT22;54374;50.196;8.050;2022-09-21T03:20:53;3.30;99.90
9175;DHT22;54374;50.196;8.050;2022-09-21T03:23:21;3.30;99.90
9175;DHT22;54374;50.196;8.050;2022-09-21T03:25:48;3.40;99.90
9175;DHT22;54374;50.196;8.050;2022-09-21T03:28:17;3.30;99.90
9175;DHT22;54374;50.196;8.050;2022-09-21T03:30:44;3.30;99.90
9175;DHT22;54374;50.196;8.050;2022-09-21T03:33:11;3.30;99.90
9175;DHT22;54374;50.196;8.050;2022-09-21T03:35:40;3.30;99.90
9175;DHT22;54374;50.196;8.050;2022-09-21T03:38:07;3.30;99.90
9175;DHT22;54374;50.196;8.050;2022-09-21T03:40:34;3.30;99.90
9175;DHT22;54374;50.196;8.050;2022-09-21T03:43:01;3.20;99.90
9175;DHT22;54374;50.196;8.050;2022-09-21T03:45:29;3.30;99.90
9175;DHT22;54374;50.196;8.050;2022-09-21T03:47:56;3.30;99.90
9175;DHT22;54374;50.196;8.050;2022-09-21T03:50:24;3.30;99.90
9175;DHT22;54374;50.196;8.050;2022-09-21T03:52:54;3.30;99.90
9175;DHT22;54374;50.196;8.050;2022-09-21T03:55:21;3.30;99.90
9175;DHT22;54374;50.196;8.050;2022-09-21T03:57:48;3.40;99.90
9175;DHT22;54374;50.196;8.050;2022-09-21T04:00:15;3.40;99.90
9175;DHT22;54374;50.196;8.050;2022-09-21T04:02:42;3.30;99.90
9175;DHT22;54374;50.196;8.050;2022-09-21T04:05:11;3.30;99.90
9175;DHT22;54374;50.196;8.050;2022-09-21T04:07:41;3.30;99.90
9175;DHT22;54374;50.196;8.050;2022-09-21T04:10:14;3.30;99.90
9175;DHT22;54374;50.196;8.050;2022-09-21T04:12:42;3.40;99.90
9175;DHT22;54374;50.196;8.050;2022-09-21T04:15:10;3.50;99.90
9175;DHT22;54374;50.196;8.050;2022-09-21T04:17:37;3.50;99.90
9175;DHT22;54374;50.196;8.050;2022-09-21T04:20:06;3.60;99.90
9175;DHT22;54374;50.196;8.050;2022-09-21T04:22:33;3.60;99.90
9175;DHT22;54374;50.196;8.050;2022-09-21T04:25:00;3.60;99.90
9175;DHT22;54374;50.196;8.050;2022-09-21T04:27:28;3.60;99.90
9175;DHT22;54374;50.196;8.050;2022-09-21T04:29:55;3.60;99.90
9175;DHT22;54374;50.196;8.050;2022-09-21T04:32:22;3.60;99.90
9175;DHT22;54374;50.196;8.050;2022-09-21T04:34:49;3.70;99.90
9175;DHT22;54374;50.196;8.050;2022-09-21T04:37:16;3.70;99.90
9175;DHT22;54374;50.196;8.050;2022-09-21T04:39:43;3.90;99.90
9175;DHT22;54374;50.196;8.050;2022-09-21T04:42:10;3.90;99.90
9175;DHT22;54374;50.196;8.050;2022-09-21T04:44:39;3.90;99.90
9175;DHT22;54374;50.196;8.050;2022-09-21T04:47:06;3.90;99.90
9175;DHT22;54374;50.196;8.050;2022-09-21T04:49:34;3.90;99.90
9175;DHT22;54374;50.196;8.050;2022-09-21T04:52:01;3.80;99.90
9175;DHT22;54374;50.196;8.050;2022-09-21T04:54:28;3.90;99.90
9175;DHT22;54374;50.196;8.050;2022-09-21T04:56:55;4.00;99.90
9175;DHT22;54374;50.196;8.050;2022-09-21T04:59:22;4.00;99.90
9175;DHT22;54374;50.196;8.050;2022-09-21T05:01:51;4.00;99.90
9175;DHT22;54374;50.196;8.050;2022-09-21T05:04:18;4.00;99.90
9175;DHT22;54374;50.196;8.050;2022-09-21T05:06:45;3.90;99.90
9175;DHT22;54374;50.196;8.050;2022-09-21T05:09:12;3.80;99.90
9175;DHT22;54374;50.196;8.050;2022-09-21T05:11:56;3.70;99.90
9175;DHT22;54374;50.196;8.050;2022-09-21T05:14:23;3.70;99.90
9175;DHT22;54374;50.196;8.050;2022-09-21T05:16:55;3.70;99.90
9175;DHT22;54374;50.196;8.050;2022-09-21T05:19:22;3.80;99.90
9175;DHT22;54374;50.196;8.050;2022-09-21T05:21:49;4.00;99.90
9175;DHT22;54374;50.196;8.050;2022-09-21T05:24:16;4.00;99.90
9175;DHT22;54374;50.196;8.050;2022-09-21T05:26:43;4.00;99.90
9175;DHT22;54374;50.196;8.050;2022-09-21T05:29:10;4.10;99.90
9175;DHT22;54374;50.196;8.050;2022-09-21T05:31:44;4.10;99.90
9175;DHT22;54374;50.196;8.050;2022-09-21T05:34:35;4.00;99.90
9175;DHT22;54374;50.196;8.050;2022-09-21T05:37:10;4.00;99.90
9175;DHT22;54374;50.196;8.050;2022-09-21T05:39:40;4.10;99.90
9175;DHT22;54374;50.196;8.050;2022-09-21T05:42:09;4.10;99.90
9175;DHT22;54374;50.196;8.050;2022-09-21T05:44:36;4.00;99.90
9175;DHT22;54374;50.196;8.050;2022-09-21T05:47:08;3.90;99.90
9175;DHT22;54374;50.196;8.050;2022-09-21T05:49:48;3.90;99.90
9175;DHT22;54374;50.196;8.050;2022-09-21T05:52:26;4.10;99.90
9175;DHT22;54374;50.196;8.050;2022-09-21T05:55:02;4.20;99.90
9175;DHT22;54374;50.196;8.050;2022-09-21T05:57:39;4.30;99.90
9175;DHT22;54374;50.196;8.050;2022-09-21T06:00:15;4.40;99.90
9175;DHT22;54374;50.196;8.050;2022-09-21T06:03:03;4.40;99.90
9175;DHT22;54374;50.196;8.050;2022-09-21T06:05:35;4.40;99.90
9175;DHT22;54374;50.196;8.050;2022-09-21T06:08:02;4.40;99.90
9175;DHT22;54374;50.196;8.050;2022-09-21T06:10:33;4.50;99.90
9175;DHT22;54374;50.196;8.050;2022-09-21T06:13:00;4.50;99.90
9175;DHT22;54374;50.196;8.050;2022-09-21T06:15:27;4.50;99.90
9175;DHT22;54374;50.196;8.050;2022-09-21T06:17:54;4.50;99.90
9175;DHT22;54374;50.196;8.050;2022-09-21T06:20:21;4.50;99.90
9175;DHT22;54374;50.196;8.050;2022-09-21T06:22:51;4.50;99.90
9175;DHT22;54374;50.196;8.050;2022-09-21T06:25:18;4.70;99.90
9175;DHT22;54374;50.196;8.050;2022-09-21T06:27:45;4.70;99.90
9175;DHT22;54374;50.196;8.050;2022-09-21T06:30:12;4.70;99.90
9175;DHT22;54374;50.196;8.050;2022-09-21T06:32:39;4.70;99.90
9175;DHT22;54374;50.196;8.050;2022-09-21T06:35:07;4.90;99.90
9175;DHT22;54374;50.196;8.050;2022-09-21T06:37:34;4.90;99.90
9175;DHT22;54374;50.196;8.050;2022-09-21T06:40:05;5.00;99.90
9175;DHT22;54374;50.196;8.050;2022-09-21T06:42:32;5.00;99.90
9175;DHT22;54374;50.196;8.050;2022-09-21T06:44:59;5.00;99.90
9175;DHT22;54374;50.196;8.050;2022-09-21T06:47:28;5.10;99.90
9175;DHT22;54374;50.196;8.050;2022-09-21T06:49:54;5.10;99.90
9175;DHT22;54374;50.196;8.050;2022-09-21T06:52:22;5.10;99.90
9175;DHT22;54374;50.196;8.050;2022-09-21T06:54:48;5.10;99.90
9175;DHT22;54374;50.196;8.050;2022-09-21T06:57:17;5.20;99.90
9175;DHT22;54374;50.196;8.050;2022-09-21T06:59:44;5.30;99.90
9175;DHT22;54374;50.196;8.050;2022-09-21T07:02:11;5.30;99.90
9175;DHT22;54374;50.196;8.050;2022-09-21T07:04:38;5.50;99.90
9175;DHT22;54374;50.196;8.050;2022-09-21T07:07:05;5.60;99.90
9175;DHT22;54374;50.196;8.050;2022-09-21T07:09:32;5.70;99.90
9175;DHT22;54374;50.196;8.050;2022-09-21T07:11:59;6.00;99.90
9175;DHT22;54374;50.196;8.050;2022-09-21T07:14:28;5.80;99.90
9175;DHT22;54374;50.196;8.050;2022-09-21T07:16:55;5.80;99.90
9175;DHT22;54374;50.196;8.050;2022-09-21T07:19:22;5.90;99.90
9175;DHT22;54374;50.196;8.050;2022-09-21T07:21:49;6.00;99.90
9175;DHT22;54374;50.196;8.050;2022-09-21T07:24:18;6.10;99.90
9175;DHT22;54374;50.196;8.050;2022-09-21T07:26:45;6.00;99.90
9175;DHT22;54374;50.196;8.050;2022-09-21T07:29:12;5.90;99.90
9175;DHT22;54374;50.196;8.050;2022-09-21T07:31:42;6.00;99.90
9175;DHT22;54374;50.196;8.050;2022-09-21T07:34:09;6.20;99.90
9175;DHT22;54374;50.196;8.050;2022-09-21T07:36:36;6.30;99.90
9175;DHT22;54374;50.196;8.050;2022-09-21T07:39:03;6.30;99.90
9175;DHT22;54374;50.196;8.050;2022-09-21T07:41:30;6.30;99.90
9175;DHT22;54374;50.196;8.050;2022-09-21T07:43:57;6.40;99.90
9175;DHT22;54374;50.196;8.050;2022-09-21T07:46:24;6.50;99.90
9175;DHT22;54374;50.196;8.050;2022-09-21T07:48:54;6.60;99.90
9175;DHT22;54374;50.196;8.050;2022-09-21T07:51:23;6.70;99.90
9175;DHT22;54374;50.196;8.050;2022-09-21T07:53:53;6.60;99.90
9175;DHT22;54374;50.196;8.050;2022-09-21T07:56:21;6.80;99.90
9175;DHT22;54374;50.196;8.050;2022-09-21T07:58:48;6.90;99.90
9175;DHT22;54374;50.196;8.050;2022-09-21T08:01:33;6.90;99.90
9175;DHT22;54374;50.196;8.050;2022-09-21T08:04:03;7.00;99.90
9175;DHT22;54374;50.196;8.050;2022-09-21T08:06:31;7.20;99.90
9175;DHT22;54374;50.196;8.050;2022-09-21T08:08:58;7.30;99.90
9175;DHT22;54374;50.196;8.050;2022-09-21T08:11:27;7.50;99.90
9175;DHT22;54374;50.196;8.050;2022-09-21T08:13:57;7.70;99.90
9175;DHT22;54374;50.196;8.050;2022-09-21T08:16:25;7.80;99.90
9175;DHT22;54374;50.196;8.050;2022-09-21T08:18:53;8.10;99.90
9175;DHT22;54374;50.196;8.050;2022-09-21T08:21:22;8.20;99.90
9175;DHT22;54374;50.196;8.050;2022-09-21T08:23:49;8.40;99.90
9175;DHT22;54374;50.196;8.050;2022-09-21T08:26:18;8.60;99.90
9175;DHT22;54374;50.196;8.050;2022-09-21T08:28:46;8.90;99.90
9175;DHT22;54374;50.196;8.050;2022-09-21T08:31:15;8.90;99.90
9175;DHT22;54374;50.196;8.050;2022-09-21T08:33:44;8.80;99.90
9175;DHT22;54374;50.196;8.050;2022-09-21T08:36:11;8.70;99.90
9175;DHT22;54374;50.196;8.050;2022-09-21T08:38:39;8.70;99.90
9175;DHT22;54374;50.196;8.050;2022-09-21T08:41:16;8.90;99.90
9175;DHT22;54374;50.196;8.050;2022-09-21T08:43:47;8.60;99.90
9175;DHT22;54374;50.196;8.050;2022-09-21T08:46:17;8.70;99.90
9175;DHT22;54374;50.196;8.050;2022-09-21T08:48:48;8.70;99.90
9175;DHT22;54374;50.196;8.050;2022-09-21T08:51:20;8.90;99.90
9175;DHT22;54374;50.196;8.050;2022-09-21T08:53:52;8.90;99.90
9175;DHT22;54374;50.196;8.050;2022-09-21T08:56:21;9.20;99.90
9175;DHT22;54374;50.196;8.050;2022-09-21T08:58:49;9.10;99.90
9175;DHT22;54374;50.196;8.050;2022-09-21T09:01:36;9.20;99.90
9175;DHT22;54374;50.196;8.050;2022-09-21T09:04:19;9.50;99.90
9175;DHT22;54374;50.196;8.050;2022-09-21T09:06:56;9.70;99.90
9175;DHT22;54374;50.196;8.050;2022-09-21T09:09:53;9.90;99.90
9175;DHT22;54374;50.196;8.050;2022-09-21T09:12:35;10.10;99.90
9175;DHT22;54374;50.196;8.050;2022-09-21T09:15:15;10.00;99.90
9175;DHT22;54374;50.196;8.050;2022-09-21T09:17:51;10.10;99.90
9175;DHT22;54374;50.196;8.050;2022-09-21T09:20:23;10.10;99.90
9175;DHT22;54374;50.196;8.050;2022-09-21T09:23:01;10.10;99.90
9175;DHT22;54374;50.196;8.050;2022-09-21T09:25:36;10.10;99.90
9175;DHT22;54374;50.196;8.050;2022-09-21T09:28:15;10.20;99.90
9175;DHT22;54374;50.196;8.050;2022-09-21T09:30:43;10.40;99.90
9175;DHT22;54374;50.196;8.050;2022-09-21T09:33:14;10.40;99.90
9175;DHT22;54374;50.196;8.050;2022-09-21T09:35:46;10.50;99.90
9175;DHT22;54374;50.196;8.050;2022-09-21T09:38:23;10.50;99.90
9175;DHT22;54374;50.196;8.050;2022-09-21T09:41:22;10.60;99.90
9175;DHT22;54374;50.196;8.050;2022-09-21T09:44:01;10.70;99.90
9175;DHT22;54374;50.196;8.050;2022-09-21T09:46:35;10.80;99.90
9175;DHT22;54374;50.196;8.050;2022-09-21T09:49:16;11.00;99.90
9175;DHT22;54374;50.196;8.050;2022-09-21T09:51:47;11.10;99.90
9175;DHT22;54374;50.196;8.050;2022-09-21T09:54:16;11.40;99.90
9175;DHT22;54374;50.196;8.050;2022-09-21T09:56:45;11.30;99.90
9175;DHT22;54374;50.196;8.050;2022-09-21T09:59:18;11.40;99.90
9175;DHT22;54374;50.196;8.050;2022-09-21T10:01:58;11.60;99.90
9175;DHT22;54374;50.196;8.050;2022-09-21T10:04:27;11.80;99.90
9175;DHT22;54374;50.196;8.050;2022-09-21T10:06:54;12.00;99.90
9175;DHT22;54374;50.196;8.050;2022-09-21T10:09:26;12.10;99.90
9175;DHT22;54374;50.196;8.050;2022-09-21T10:11:58;12.50;99.90
9175;DHT22;54374;50.196;8.050;2022-09-21T10:14:27;12.60;99.90
9175;DHT22;54374;50.196;8.050;2022-09-21T10:17:01;12.60;99.90
9175;DHT22;54374;50.196;8.050;2022-09-21T10:19:30;12.60;99.90
9175;DHT22;54374;50.196;8.050;2022-09-21T10:21:59;12.70;99.90
9175;DHT22;54374;50.196;8.050;2022-09-21T10:24:29;12.60;99.90
9175;DHT22;54374;50.196;8.050;2022-09-21T10:27:04;12.70;99.90
9175;DHT22;54374;50.196;8.050;2022-09-21T10:29:39;12.70;99.90
9175;DHT22;54374;50.196;8.050;2022-09-21T10:32:19;12.90;99.90
9175;DHT22;54374;50.196;8.050;2022-09-21T10:37:44;13.00;99.90
9175;DHT22;54374;50.196;8.050;2022-09-21T10:40:24;13.10;99.90
9175;DHT22;54374;50.196;8.050;2022-09-21T10:42:55;13.20;99.90
9175;DHT22;54374;50.196;8.050;2022-09-21T10:45:24;13.10;99.90
9175;DHT22;54374;50.196;8.050;2022-09-21T10:47:54;13.20;99.90
9175;DHT22;54374;50.196;8.050;2022-09-21T10:50:24;13.20;99.90
9175;DHT22;54374;50.196;8.050;2022-09-21T10:52:57;13.40;99.90
9175;DHT22;54374;50.196;8.050;2022-09-21T10:55:27;13.40;99.90
9175;DHT22;54374;50.196;8.050;2022-09-21T10:57:56;13.50;99.90
9175;DHT22;54374;50.196;8.050;2022-09-21T11:00:33;13.40;99.90
9175;DHT22;54374;50.196;8.050;2022-09-21T11:03:30;13.60;99.90
9175;DHT22;54374;50.196;8.050;2022-09-21T11:06:02;13.60;99.90
9175;DHT22;54374;50.196;8.050;2022-09-21T11:08:34;13.80;99.90
9175;DHT22;54374;50.196;8.050;2022-09-21T11:11:16;13.70;99.90
9175;DHT22;54374;50.196;8.050;2022-09-21T11:13:53;13.60;99.90
9175;DHT22;54374;50.196;8.050;2022-09-21T11:16:27;13.60;99.90
9175;DHT22;54374;50.196;8.050;2022-09-21T11:19:04;13.70;99.90
9175;DHT22;54374;50.196;8.050;2022-09-21T11:21:39;13.60;99.90
9175;DHT22;54374;50.196;8.050;2022-09-21T11:24:16;13.50;99.90
9175;DHT22;54374;50.196;8.050;2022-09-21T11:26:49;13.50;99.90
9175;DHT22;54374;50.196;8.050;2022-09-21T11:29:23;13.40;99.90
9175;DHT22;54374;50.196;8.050;2022-09-21T11:32:11;13.30;99.90
9175;DHT22;54374;50.196;8.050;2022-09-21T11:34:55;13.30;99.90
9175;DHT22;54374;50.196;8.050;2022-09-21T11:37:36;13.50;99.90
9175;DHT22;54374;50.196;8.050;2022-09-21T11:40:16;13.50;99.90
9175;DHT22;54374;50.196;8.050;2022-09-21T11:42:57;13.60;99.90
9175;DHT22;54374;50.196;8.050;2022-09-21T11:45:50;13.80;99.90
9175;DHT22;54374;50.196;8.050;2022-09-21T11:48:34;13.80;99.90
9175;DHT22;54374;50.196;8.050;2022-09-21T11:51:13;13.80;99.90
9175;DHT22;54374;50.196;8.050;2022-09-21T11:54:06;14.00;99.90
9175;DHT22;54374;50.196;8.050;2022-09-21T11:56:45;14.20;99.90
9175;DHT22;54374;50.196;8.050;2022-09-21T11:59:39;14.20;99.90
9175;DHT22;54374;50.196;8.050;2022-09-21T12:02:41;14.10;99.90
9175;DHT22;54374;50.196;8.050;2022-09-21T12:05:14;14.10;99.90
9175;DHT22;54374;50.196;8.050;2022-09-21T12:08:01;14.00;99.90
9175;DHT22;54374;50.196;8.050;2022-09-21T12:10:38;13.80;99.90
9175;DHT22;54374;50.196;8.050;2022-09-21T12:13:09;13.60;99.90
9175;DHT22;54374;50.196;8.050;2022-09-21T12:15:41;13.50;99.90
9175;DHT22;54374;50.196;8.050;2022-09-21T12:18:18;13.50;99.90
9175;DHT22;54374;50.196;8.050;2022-09-21T12:20:57;13.40;99.90
9175;DHT22;54374;50.196;8.050;2022-09-21T12:23:41;13.50;99.90
9175;DHT22;54374;50.196;8.050;2022-09-21T12:26:09;13.60;99.90
9175;DHT22;54374;50.196;8.050;2022-09-21T12:28:40;13.80;99.90
9175;DHT22;54374;50.196;8.050;2022-09-21T12:31:11;13.90;99.90
9175;DHT22;54374;50.196;8.050;2022-09-21T12:33:45;14.00;99.90
9175;DHT22;54374;50.196;8.050;2022-09-21T12:36:17;14.00;99.90
9175;DHT22;54374;50.196;8.050;2022-09-21T12:38:50;14.20;99.90
9175;DHT22;54374;50.196;8.050;2022-09-21T12:41:23;14.30;99.90
9175;DHT22;54374;50.196;8.050;2022-09-21T12:44:01;14.40;99.90
9175;DHT22;54374;50.196;8.050;2022-09-21T12:46:33;14.40;99.90
9175;DHT22;54374;50.196;8.050;2022-09-21T12:49:15;14.30;99.90
9175;DHT22;54374;50.196;8.050;2022-09-21T12:51:47;14.30;99.90
9175;DHT22;54374;50.196;8.050;2022-09-21T12:54:28;14.30;99.90
9175;DHT22;54374;50.196;8.050;2022-09-21T12:57:08;14.50;99.90
9175;DHT22;54374;50.196;8.050;2022-09-21T12:59:42;14.30;99.90
9175;DHT22;54374;50.196;8.050;2022-09-21T13:02:19;14.30;99.90
9175;DHT22;54374;50.196;8.050;2022-09-21T13:04:58;14.40;99.90
9175;DHT22;54374;50.196;8.050;2022-09-21T13:07:40;14.40;99.90
9175;DHT22;54374;50.196;8.050;2022-09-21T13:10:18;14.40;99.90
9175;DHT22;54374;50.196;8.050;2022-09-21T13:12:51;14.40;99.90
9175;DHT22;54374;50.196;8.050;2022-09-21T13:15:23;14.40;99.90
9175;DHT22;54374;50.196;8.050;2022-09-21T13:18:00;14.50;99.90
9175;DHT22;54374;50.196;8.050;2022-09-21T13:20:35;14.70;99.90
9175;DHT22;54374;50.196;8.050;2022-09-21T13:23:04;14.70;99.90
9175;DHT22;54374;50.196;8.050;2022-09-21T13:25:33;14.70;99.90
9175;DHT22;54374;50.196;8.050;2022-09-21T13:28:05;14.70;99.90
9175;DHT22;54374;50.196;8.050;2022-09-21T13:30:40;14.70;99.90
9175;DHT22;54374;50.196;8.050;2022-09-21T13:33:30;14.70;99.90
9175;DHT22;54374;50.196;8.050;2022-09-21T13:36:10;14.80;99.90
9175;DHT22;54374;50.196;8.050;2022-09-21T13:39:13;15.10;99.90
9175;DHT22;54374;50.196;8.050;2022-09-21T13:41:41;15.20;99.90
9175;DHT22;54374;50.196;8.050;2022-09-21T13:44:19;15.30;99.90
9175;DHT22;54374;50.196;8.050;2022-09-21T13:46:54;15.40;99.90
9175;DHT22;54374;50.196;8.050;2022-09-21T13:49:30;15.50;99.90
9175;DHT22;54374;50.196;8.050;2022-09-21T13:52:03;15.20;99.90
9175;DHT22;54374;50.196;8.050;2022-09-21T13:54:34;15.10;99.90
9175;DHT22;54374;50.196;8.050;2022-09-21T13:57:14;15.00;99.90
9175;DHT22;54374;50.196;8.050;2022-09-21T13:59:42;14.90;99.90
9175;DHT22;54374;50.196;8.050;2022-09-21T14:02:27;14.90;99.90
9175;DHT22;54374;50.196;8.050;2022-09-21T14:05:01;14.80;99.90
9175;DHT22;54374;50.196;8.050;2022-09-21T14:07:32;14.80;99.90
9175;DHT22;54374;50.196;8.050;2022-09-21T14:10:02;14.60;99.90
9175;DHT22;54374;50.196;8.050;2022-09-21T14:12:33;14.80;99.90
9175;DHT22;54374;50.196;8.050;2022-09-21T14:15:35;14.50;99.90
9175;DHT22;54374;50.196;8.050;2022-09-21T14:18:33;14.60;99.90
9175;DHT22;54374;50.196;8.050;2022-09-21T14:21:17;14.60;99.90
9175;DHT22;54374;50.196;8.050;2022-09-21T14:24:19;14.60;99.90
9175;DHT22;54374;50.196;8.050;2022-09-21T14:26:58;14.70;99.90
9175;DHT22;54374;50.196;8.050;2022-09-21T14:29:38;14.60;99.90
9175;DHT22;54374;50.196;8.050;2022-09-21T14:32:14;14.60;99.90
9175;DHT22;54374;50.196;8.050;2022-09-21T14:34:45;14.70;99.90
9175;DHT22;54374;50.196;8.050;2022-09-21T14:37:21;14.80;99.90
9175;DHT22;54374;50.196;8.050;2022-09-21T14:39:54;14.70;99.90
9175;DHT22;54374;50.196;8.050;2022-09-21T14:42:24;14.60;99.90
9175;DHT22;54374;50.196;8.050;2022-09-21T14:44:56;14.60;99.90
9175;DHT22;54374;50.196;8.050;2022-09-21T14:47:37;14.50;99.90
9175;DHT22;54374;50.196;8.050;2022-09-21T14:50:21;14.40;99.90
9175;DHT22;54374;50.196;8.050;2022-09-21T14:56:08;14.20;99.90
9175;DHT22;54374;50.196;8.050;2022-09-21T14:58:47;14.20;99.90
9175;DHT22;54374;50.196;8.050;2022-09-21T15:01:37;14.10;99.90
9175;DHT22;54374;50.196;8.050;2022-09-21T15:04:31;14.00;99.90
9175;DHT22;54374;50.196;8.050;2022-09-21T15:07:20;13.90;99.90
9175;DHT22;54374;50.196;8.050;2022-09-21T15:10:23;13.80;99.90
9175;DHT22;54374;50.196;8.050;2022-09-21T15:13:39;13.90;99.90
9175;DHT22;54374;50.196;8.050;2022-09-21T15:16:23;13.80;99.90
9175;DHT22;54374;50.196;8.050;2022-09-21T15:19:00;13.90;99.90
9175;DHT22;54374;50.196;8.050;2022-09-21T15:21:31;14.00;99.90
9175;DHT22;54374;50.196;8.050;2022-09-21T15:24:09;14.10;99.90
9175;DHT22;54374;50.196;8.050;2022-09-21T15:26:42;14.20;99.90
9175;DHT22;54374;50.196;8.050;2022-09-21T15:29:19;14.30;99.90
9175;DHT22;54374;50.196;8.050;2022-09-21T15:31:49;14.30;99.90
9175;DHT22;54374;50.196;8.050;2022-09-21T15:34:16;14.40;99.90
9175;DHT22;54374;50.196;8.050;2022-09-21T15:36:43;14.40;99.90
9175;DHT22;54374;50.196;8.050;2022-09-21T15:39:26;14.50;99.90
9175;DHT22;54374;50.196;8.050;2022-09-21T15:42:12;14.70;99.90
9175;DHT22;54374;50.196;8.050;2022-09-21T15:44:45;14.70;99.90
9175;DHT22;54374;50.196;8.050;2022-09-21T15:47:14;14.80;99.90
9175;DHT22;54374;50.196;8.050;2022-09-21T15:49:42;14.70;99.90
9175;DHT22;54374;50.196;8.050;2022-09-21T15:52:15;14.70;99.90
9175;DHT22;54374;50.196;8.050;2022-09-21T15:54:45;14.70;99.90
9175;DHT22;54374;50.196;8.050;2022-09-21T15:57:29;14.60;99.90
9175;DHT22;54374;50.196;8.050;2022-09-21T15:59:59;14.40;99.90
9175;DHT22;54374;50.196;8.050;2022-09-21T16:02:35;14.20;99.90
9175;DHT22;54374;50.196;8.050;2022-09-21T16:05:03;14.00;99.90
9175;DHT22;54374;50.196;8.050;2022-09-21T16:07:32;13.80;99.90
9175;DHT22;54374;50.196;8.050;2022-09-21T16:10:00;13.70;99.90
9175;DHT22;54374;50.196;8.050;2022-09-21T16:12:41;13.50;99.90
9175;DHT22;54374;50.196;8.050;2022-09-21T16:15:18;13.50;99.90
9175;DHT22;54374;50.196;8.050;2022-09-21T16:17:58;13.60;99.90
9175;DHT22;54374;50.196;8.050;2022-09-21T16:20:39;13.60;99.90
9175;DHT22;54374;50.196;8.050;2022-09-21T16:23:12;13.70;99.90
9175;DHT22;54374;50.196;8.050;2022-09-21T16:25:41;13.70;99.90
9175;DHT22;54374;50.196;8.050;2022-09-21T16:28:36;13.40;99.90
9175;DHT22;54374;50.196;8.050;2022-09-21T16:31:30;13.10;99.90
9175;DHT22;54374;50.196;8.050;2022-09-21T16:36:44;12.70;99.90
9175;DHT22;54374;50.196;8.050;2022-09-21T16:39:15;12.60;99.90
9175;DHT22;54374;50.196;8.050;2022-09-21T16:41:45;12.80;99.90
9175;DHT22;54374;50.196;8.050;2022-09-21T16:44:14;12.50;99.90